Time;durP1;ratioP1;P1;durP2;ratioP2;P2;SDS_P1;SDS_P2;PMS_P1;PMS_P2;Temp;Humidity;BMP_temperature;BMP_pressure;BME280_temperature;BME280_humidity;BME280_pressure;Samples;Min_cycle;Max_cycle;Signal;HPM_P1;HPM_P2
2023/03/22 00:01:09;;;;;;;8.68;6.55;;;333.70;2329.60;;;;;;4992400;28;20023;-59
2023/03/22 00:03:35;;;;;;;8.52;7.10;;;333.70;2329.60;;;;;;4991949;28;20116;-61
2023/03/22 00:06:01;;;;;;;10.88;7.15;;;333.60;2329.60;;;;;;4992190;28;20050;-61
2023/03/22 00:08:26;;;;;;;8.55;6.88;;;333.60;2329.60;;;;;;4991953;28;20033;-61
2023/03/22 00:10:52;;;;;;;9.95;7.10;;;333.50;2329.60;;;;;;4992458;28;20026;-61
2023/03/22 00:13:18;;;;;;;10.68;8.10;;;333.50;2329.60;;;;;;4991337;28;20057;-58
2023/03/22 00:15:47;;;;;;;10.15;7.30;;;333.50;2329.60;;;;;;4991729;28;20030;-57
2023/03/22 00:18:14;;;;;;;7.97;6.70;;;333.50;2329.60;;;;;;4991348;28;20026;-58
2023/03/22 00:20:51;;;;;;;10.95;8.25;;;333.50;2329.60;;;;;;4991686;28;20048;-61
2023/03/22 00:23:17;;;;;;;9.98;7.30;;;333.40;2329.60;;;;;;4991923;28;20027;-61
2023/03/22 00:25:44;;;;;;;10.15;7.65;;;333.40;2329.60;;;;;;4991460;28;20025;-57
2023/03/22 00:28:11;;;;;;;9.40;7.35;;;333.40;2329.60;;;;;;4991549;28;20519;-60
2023/03/22 00:30:37;;;;;;;10.52;7.32;;;333.40;2329.60;;;;;;4991749;28;20072;-58
2023/03/22 00:33:04;;;;;;;9.75;7.40;;;333.40;2329.60;;;;;;4991667;28;20047;-62
2023/03/22 00:35:30;;;;;;;12.45;7.68;;;333.50;2329.60;;;;;;4991845;28;20110;-59
2023/03/22 00:37:56;;;;;;;12.98;8.63;;;333.50;2329.60;;;;;;4991572;28;20050;-62
2023/03/22 00:40:22;;;;;;;8.32;6.47;;;333.40;2329.60;;;;;;4991401;28;20023;-62
2023/03/22 00:42:48;;;;;;;10.45;7.15;;;333.50;2329.60;;;;;;4990943;28;20035;-62
2023/03/22 00:45:13;;;;;;;10.68;6.05;;;333.50;2329.60;;;;;;4991340;28;20461;-62
2023/03/22 00:47:39;;;;;;;9.07;6.03;;;333.40;2329.60;;;;;;4991581;28;20066;-61
2023/03/22 00:50:06;;;;;;;13.20;11.90;;;333.40;2329.60;;;;;;4991588;28;20101;-64
2023/03/22 00:52:31;;;;;;;8.48;6.95;;;333.30;2329.60;;;;;;4991518;28;20233;-63
2023/03/22 00:54:57;;;;;;;10.23;6.72;;;333.30;2329.60;;;;;;4991156;28;20114;-62
2023/03/22 00:57:23;;;;;;;9.65;6.55;;;333.30;2329.60;;;;;;4991415;28;20424;-63
2023/03/22 00:59:51;;;;;;;11.23;6.88;;;333.30;2329.60;;;;;;4991083;28;20029;-57
2023/03/22 01:02:17;;;;;;;12.57;7.53;;;333.30;2329.60;;;;;;4991163;28;20037;-63
2023/03/22 01:04:46;;;;;;;12.38;8.30;;;333.20;2329.60;;;;;;4990884;28;20026;-62
2023/03/22 01:07:16;;;;;;;10.95;7.15;;;333.20;2329.60;;;;;;4990953;28;20057;-57
2023/03/22 01:09:46;;;;;;;12.80;7.00;;;333.20;2329.60;;;;;;4990524;28;20026;-59
2023/03/22 01:12:12;;;;;;;10.60;6.07;;;333.20;2329.60;;;;;;4990697;28;20497;-56
2023/03/22 01:14:39;;;;;;;10.93;6.68;;;333.30;2329.60;;;;;;4990806;28;20078;-64
2023/03/22 01:17:06;;;;;;;8.70;5.65;;;333.40;2329.60;;;;;;4972982;28;20358;-64
2023/03/22 01:19:33;;;;;;;14.43;12.68;;;333.50;2329.60;;;;;;4980850;28;20409;-59
2023/03/22 01:21:58;;;;;;;7.55;6.40;;;333.50;2329.60;;;;;;4990780;28;20022;-63
2023/03/22 01:24:24;;;;;;;9.05;6.03;;;333.40;2329.60;;;;;;4990620;28;20499;-63
2023/03/22 01:26:50;;;;;;;9.18;7.70;;;333.40;2329.60;;;;;;4990787;28;20030;-60
2023/03/22 01:29:16;;;;;;;7.85;5.70;;;333.30;2329.60;;;;;;4990748;28;20027;-60
2023/03/22 01:31:42;;;;;;;7.63;5.22;;;333.40;2329.60;;;;;;4989888;28;20109;-59
2023/03/22 01:34:08;;;;;;;7.57;6.30;;;333.40;2329.60;;;;;;4990440;28;20057;-65
2023/03/22 01:36:35;;;;;;;7.60;6.10;;;333.30;2329.60;;;;;;4990476;28;20473;-62
2023/03/22 01:39:01;;;;;;;10.00;7.22;;;333.20;2329.60;;;;;;4990586;28;20026;-63
2023/03/22 01:41:27;;;;;;;11.23;8.90;;;333.20;2329.60;;;;;;4990701;28;20014;-60
2023/03/22 01:44:28;;;;;;;11.00;7.68;;;333.30;2329.60;;;;;;4990281;28;20086;-62
2023/03/22 01:46:54;;;;;;;11.13;7.38;;;333.20;2329.60;;;;;;4938169;29;20039;-60
2023/03/22 01:49:24;;;;;;;10.68;8.25;;;333.30;2329.60;;;;;;4936740;29;20579;-62
2023/03/22 01:51:54;;;;;;;15.02;6.95;;;333.40;2329.60;;;;;;4949835;29;20030;-61
2023/03/22 01:54:34;;;;;;;10.98;7.75;;;333.40;2329.60;;;;;;4936581;29;20118;-59
2023/03/22 01:57:02;;;;;;;9.38;7.18;;;333.30;2329.60;;;;;;4949201;29;20035;-64
2023/03/22 01:59:28;;;;;;;10.43;7.47;;;333.30;2329.60;;;;;;4947539;29;20031;-63
2023/03/22 02:01:54;;;;;;;12.07;7.47;;;333.30;2329.60;;;;;;4938352;29;20027;-58
2023/03/22 02:04:22;;;;;;;8.95;7.13;;;333.30;2329.60;;;;;;4936570;29;20542;-62
2023/03/22 02:06:53;;;;;;;9.13;6.95;;;333.20;2329.60;;;;;;4949099;29;20039;-63
2023/03/22 02:09:20;;;;;;;10.20;7.53;;;333.20;2329.60;;;;;;4935852;29;20506;-62
2023/03/22 02:12:06;;;;;;;8.60;6.70;;;333.10;2329.60;;;;;;4949582;29;20372;-62
2023/03/22 02:14:44;;;;;;;7.93;5.70;;;333.10;2329.60;;;;;;4873655;29;20092;-59
2023/03/22 02:17:26;;;;;;;8.43;5.45;;;333.10;2329.60;;;;;;4874557;29;20041;-61
2023/03/22 02:20:11;;;;;;;10.63;7.40;;;333.10;2329.60;;;;;;4874931;29;20041;-61
2023/03/22 02:22:52;;;;;;;8.98;5.97;;;333.00;2329.60;;;;;;4900635;29;20031;-61
2023/03/22 02:25:41;;;;;;;7.43;5.38;;;333.00;2329.60;;;;;;4929649;29;20036;-57
2023/03/22 02:28:13;;;;;;;9.60;5.30;;;333.10;2329.60;;;;;;4930002;29;20031;-60
2023/03/22 02:31:00;;;;;;;7.00;5.38;;;333.10;2329.60;;;;;;4929888;29;20024;-59
2023/03/22 02:33:37;;;;;;;5.55;4.93;;;333.20;2329.60;;;;;;4929342;29;20175;-60
2023/03/22 02:36:48;;;;;;;7.22;4.72;;;333.20;2329.60;;;;;;4929864;29;20023;-62
2023/03/22 02:39:41;;;;;;;6.32;4.70;;;333.20;2329.60;;;;;;4929784;29;20122;-60
2023/03/22 02:42:13;;;;;;;6.32;4.75;;;333.20;2329.60;;;;;;4929910;29;20467;-63
2023/03/22 02:44:59;;;;;;;14.45;12.95;;;333.20;2329.60;;;;;;4932349;29;20047;-61
2023/03/22 02:47:33;;;;;;;8.75;5.97;;;333.10;2329.60;;;;;;4933503;29;20071;-60
2023/03/22 02:50:05;;;;;;;;;;;333.10;2329.60;;;;;;4933716;29;20034;-60
2023/03/22 02:52:50;;;;;;;6.15;5.47;;;333.00;2329.60;;;;;;4984830;28;19909;-57
2023/03/22 02:55:16;;;;;;;9.30;6.07;;;308.10;2304.00;;;;;;4981466;28;20036;-62
2023/03/22 02:58:04;;;;;;;6.90;6.07;;;333.00;2329.60;;;;;;4993481;28;20105;-58
2023/03/22 03:00:31;;;;;;;7.75;5.88;;;332.90;2329.60;;;;;;4993706;28;20361;-60
2023/03/22 03:03:10;;;;;;;8.27;6.32;;;333.10;2329.60;;;;;;4992894;28;20037;-60
2023/03/22 03:05:49;;;;;;;7.15;5.43;;;332.90;2329.60;;;;;;4993255;28;20058;-61
2023/03/22 03:08:17;;;;;;;7.28;5.63;;;332.90;2329.60;;;;;;4993220;28;20086;-61
2023/03/22 03:10:43;;;;;;;10.73;5.70;;;332.90;2329.60;;;;;;4993184;28;20026;-61
2023/03/22 03:13:12;;;;;;;7.93;5.35;;;332.90;2329.60;;;;;;4992963;28;20126;-61
2023/03/22 03:15:41;;;;;;;7.50;5.75;;;332.90;2329.60;;;;;;4992670;28;20520;-60
2023/03/22 03:18:37;;;;;;;11.73;6.95;;;332.90;2329.60;;;;;;4993404;28;20031;-61
2023/03/22 03:21:33;;;;;;;9.88;5.72;;;332.90;2329.60;;;;;;4993283;28;20026;-58
2023/03/22 03:24:15;;;;;;;6.78;5.20;;;332.90;2329.60;;;;;;4992822;28;20014;-61
2023/03/22 03:26:56;;;;;;;7.90;5.60;;;332.90;2329.60;;;;;;4992843;28;20384;-61
2023/03/22 03:29:33;;;;;;;8.13;5.43;;;333.00;2329.60;;;;;;4992727;28;20019;-58
2023/03/22 03:32:17;;;;;;;7.68;5.20;;;333.00;2329.60;;;;;;4992350;28;20026;-61
2023/03/22 03:34:44;;;;;;;7.72;5.38;;;333.00;2329.60;;;;;;4992596;28;20115;-62
2023/03/22 03:37:17;;;;;;;7.95;5.40;;;332.90;2329.60;;;;;;4992786;28;20015;-62
2023/03/22 03:40:12;;;;;;;8.27;5.30;;;333.00;2329.60;;;;;;4992540;28;20032;-61
2023/03/22 03:42:50;;;;;;;8.10;6.03;;;333.00;2329.60;;;;;;4980774;28;20121;-56
2023/03/22 03:45:17;;;;;;;5.60;4.40;;;333.00;2329.60;;;;;;4992419;28;20465;-57
2023/03/22 03:47:46;;;;;;;7.38;4.40;;;333.00;2329.60;;;;;;4992069;28;20030;-61
2023/03/22 03:50:15;;;;;;;9.05;6.38;;;333.00;2329.60;;;;;;4992374;28;20022;-61
2023/03/22 03:52:41;;;;;;;6.50;4.93;;;333.00;2329.60;;;;;;4992578;28;20031;-61
2023/03/22 03:55:08;;;;;;;7.63;5.38;;;333.00;2329.60;;;;;;4991430;28;20428;-63
2023/03/22 03:57:34;;;;;;;7.18;4.65;;;333.00;2329.60;;;;;;4992377;28;20022;-64
2023/03/22 03:59:59;;;;;;;8.32;5.05;;;333.00;2329.60;;;;;;4992175;28;20022;-61
2023/03/22 04:02:25;;;;;;;7.50;5.20;;;333.00;2329.60;;;;;;4991850;28;20105;-58
2023/03/22 04:04:51;;;;;;;6.43;4.63;;;333.00;2329.60;;;;;;4992450;28;20490;-59
2023/03/22 04:07:16;;;;;;;10.77;6.45;;;333.00;2329.60;;;;;;4992205;28;20037;-62
2023/03/22 04:09:42;;;;;;;6.78;4.78;;;333.00;2329.60;;;;;;4991943;28;20023;-63
2023/03/22 04:12:11;;;;;;;8.00;5.68;;;332.90;2329.60;;;;;;4992212;28;20022;-64
2023/03/22 04:14:37;;;;;;;7.38;5.35;;;332.90;2329.60;;;;;;4979100;28;20062;-63
2023/03/22 04:17:03;;;;;;;10.45;5.75;;;332.90;2329.60;;;;;;4991435;28;20545;-62
2023/03/22 04:19:28;;;;;;;9.10;6.28;;;332.90;2329.60;;;;;;4992368;28;20114;-63
2023/03/22 04:21:54;;;;;;;6.95;5.10;;;332.80;2329.60;;;;;;4992150;28;20030;-59
2023/03/22 04:24:21;;;;;;;7.85;6.50;;;332.90;2329.60;;;;;;4991985;28;20038;-61
2023/03/22 04:26:47;;;;;;;8.57;6.40;;;308.10;2304.00;;;;;;4991402;28;20019;-62
2023/03/22 04:29:13;;;;;;;11.35;10.25;;;308.10;2304.00;;;;;;4991700;28;20053;-60
2023/03/22 04:31:39;;;;;;;8.35;5.80;;;308.10;2304.00;;;;;;4991669;28;20111;-61
2023/03/22 04:34:05;;;;;;;8.35;4.88;;;308.10;2304.00;;;;;;4991776;28;20126;-62
2023/03/22 04:36:35;;;;;;;7.22;5.10;;;308.00;2304.00;;;;;;4991775;28;20037;-57
2023/03/22 04:39:03;;;;;;;8.50;4.97;;;308.00;2304.00;;;;;;4991552;28;20097;-60
2023/03/22 04:41:28;;;;;;;8.05;5.63;;;307.90;2304.00;;;;;;4991411;28;20027;-62
2023/03/22 04:43:56;;;;;;;7.20;5.00;;;307.80;2304.00;;;;;;4991489;28;20027;-59
2023/03/22 04:46:22;;;;;;;12.30;6.60;;;307.80;2304.00;;;;;;4991632;28;20105;-62
2023/03/22 04:48:49;;;;;;;14.50;13.00;;;307.80;2304.00;;;;;;4991534;28;20022;-62
2023/03/22 04:51:15;;;;;;;8.70;5.82;;;307.80;2304.00;;;;;;4991287;28;20035;-63
2023/03/22 04:53:40;;;;;;;6.65;5.40;;;307.80;2304.00;;;;;;4991021;28;20050;-60
2023/03/22 04:56:11;;;;;;;7.95;6.55;;;307.80;2304.00;;;;;;4991090;28;20029;-61
2023/03/22 04:58:39;;;;;;;10.20;6.53;;;307.80;2304.00;;;;;;4991272;28;20030;-62
2023/03/22 05:01:06;;;;;;;13.05;10.27;;;307.80;2304.00;;;;;;4990957;28;20029;-60
2023/03/22 05:03:32;;;;;;;13.45;8.82;;;307.80;2304.00;;;;;;4991395;28;20416;-61
2023/03/22 05:06:00;;;;;;;9.32;6.93;;;307.80;2304.00;;;;;;4991336;28;20109;-62
2023/03/22 05:08:28;;;;;;;10.48;6.38;;;307.80;2304.00;;;;;;4990928;28;20477;-63
2023/03/22 05:10:56;;;;;;;9.38;5.47;;;307.80;2304.00;;;;;;4990974;28;20026;-60
2023/03/22 05:13:26;;;;;;;13.52;6.50;;;307.80;2304.00;;;;;;4990762;28;20058;-62
2023/03/22 05:15:52;;;;;;;6.68;4.80;;;307.90;2304.00;;;;;;4990570;28;20038;-60
2023/03/22 05:18:20;;;;;;;10.65;6.05;;;307.90;2304.00;;;;;;4991125;28;20066;-61
2023/03/22 05:20:46;;;;;;;6.22;4.97;;;308.00;2304.00;;;;;;4990771;28;20109;-61
2023/03/22 05:23:13;;;;;;;11.40;5.30;;;332.80;2329.60;;;;;;4990492;28;20058;-59
2023/03/22 05:25:39;;;;;;;8.38;5.97;;;332.90;2329.60;;;;;;4990397;28;20444;-62
2023/03/22 05:28:05;;;;;;;12.73;5.75;;;333.10;2329.60;;;;;;4990826;28;20027;-58
2023/03/22 05:30:32;;;;;;;7.85;5.18;;;333.20;2329.60;;;;;;4990591;28;20109;-59
2023/03/22 05:33:03;;;;;;;10.68;6.38;;;333.30;2329.60;;;;;;4990709;28;20429;-64
2023/03/22 05:35:30;;;;;;;6.82;4.85;;;333.50;2329.60;;;;;;4990202;28;20030;-62
2023/03/22 05:37:57;;;;;;;10.30;5.70;;;333.70;2329.60;;;;;;4985871;28;20039;-63
2023/03/22 05:40:23;;;;;;;9.25;5.90;;;333.70;2329.60;;;;;;4971353;28;20026;-58
2023/03/22 05:42:49;;;;;;;10.90;6.88;;;333.70;2329.60;;;;;;4988400;28;20061;-61
2023/03/22 05:45:15;;;;;;;13.07;6.70;;;358.40;2329.60;;;;;;4989894;28;20062;-60
2023/03/22 05:47:41;;;;;;;8.30;6.85;;;333.70;2329.60;;;;;;4990456;28;20038;-60
2023/03/22 05:50:10;;;;;;;8.10;6.18;;;333.70;2329.60;;;;;;4990304;28;20025;-61
2023/03/22 05:52:36;;;;;;;11.43;7.63;;;359.00;2329.60;;;;;;4990308;28;20114;-61
2023/03/22 05:55:02;;;;;;;9.25;6.75;;;410.30;2227.20;;;;;;4989943;28;20508;-61
2023/03/22 05:57:28;;;;;;;7.07;6.13;;;435.70;2099.20;;;;;;4990834;28;20484;-62
2023/03/22 05:59:55;;;;;;;7.88;6.13;;;410.50;2099.20;;;;;;4989830;28;20014;-62
2023/03/22 06:02:21;;;;;;;9.90;6.57;;;409.80;2176.00;;;;;;4990682;28;20037;-58
2023/03/22 06:04:48;;;;;;;10.50;6.97;;;384.90;2201.60;;;;;;4976646;28;20381;-61
2023/03/22 06:07:14;;;;;;;13.18;6.20;;;384.60;2227.20;;;;;;4990457;28;20035;-63
2023/03/22 06:09:40;;;;;;;8.40;6.68;;;384.10;2278.40;;;;;;4989770;28;20030;-56
2023/03/22 06:12:06;;;;;;;9.68;7.30;;;460.90;2073.60;;;;;;4989818;28;20019;-61
2023/03/22 06:14:32;;;;;;;8.68;6.93;;;512.30;1843.20;;;;;;4989782;28;20169;-60
2023/03/22 06:16:58;;;;;;;11.20;8.25;;;538.40;1715.20;;;;;;4989779;28;20475;-60
2023/03/22 06:19:24;;;;;;;8.73;7.18;;;563.70;1664.00;;;;;;4989449;28;20026;-60
2023/03/22 06:21:52;;;;;;;9.55;7.75;;;589.20;1587.20;;;;;;4989708;28;20121;-59
2023/03/22 06:24:18;;;;;;;8.98;7.78;;;589.40;1561.60;;;;;;4989774;28;20033;-66
2023/03/22 06:26:45;;;;;;;12.73;11.45;;;589.60;1536.00;;;;;;4989931;28;20030;-61
2023/03/22 06:29:11;;;;;;;12.38;11.05;;;614.80;1484.80;;;;;;4989774;28;20073;-63
2023/03/22 06:31:36;;;;;;;34.05;28.05;;;640.50;1433.60;;;;;;4989116;28;20026;-58
2023/03/22 06:34:03;;;;;;;15.15;13.20;;;665.60;1433.60;;;;;;4988006;28;20045;-60
2023/03/22 06:36:29;;;;;;;35.03;31.90;;;666.20;1382.40;;;;;;4969909;28;20474;-65
2023/03/22 06:38:56;;;;;;;13.45;11.38;;;640.40;1382.40;;;;;;4969866;28;20034;-61
2023/03/22 06:41:22;;;;;;;14.85;13.25;;;615.30;1408.00;;;;;;4970115;28;20089;-61
2023/03/22 06:43:47;;;;;;;10.05;8.95;;;640.40;1356.80;;;;;;4972363;28;20381;-66
2023/03/22 06:46:13;;;;;;;10.43;9.43;;;640.70;1356.80;;;;;;4989053;28;20050;-59
2023/03/22 06:48:39;;;;;;;9.50;8.38;;;640.60;1382.40;;;;;;4989547;28;20425;-65
2023/03/22 06:51:05;;;;;;;10.57;9.57;;;666.30;1331.20;;;;;;4988543;28;20027;-65
2023/03/22 06:53:31;;;;;;;15.48;10.00;;;691.40;1305.60;;;;;;4988825;28;20125;-59
2023/03/22 06:55:56;;;;;;;38.53;34.72;;;717.00;1305.60;;;;;;4952563;28;20113;-64
2023/03/22 06:58:22;;;;;;;20.65;18.75;;;717.40;1228.80;;;;;;4988222;28;20134;-64
2023/03/22 07:00:48;;;;;;;10.93;9.77;;;717.50;1228.80;;;;;;4988552;28;20026;-63
2023/03/22 07:03:14;;;;;;;12.75;10.07;;;742.70;1228.80;;;;;;4989251;28;20022;-59
2023/03/22 07:05:39;;;;;;;15.80;14.45;;;768.00;1203.20;;;;;;4989575;28;20105;-63
2023/03/22 07:08:05;;;;;;;14.75;13.25;;;768.10;1177.60;;;;;;4989355;28;20052;-65
2023/03/22 07:10:31;;;;;;;10.30;9.27;;;743.30;1177.60;;;;;;4989278;28;20030;-63
2023/03/22 07:12:57;;;;;;;10.65;9.68;;;743.00;1177.60;;;;;;4988797;28;20685;-64
2023/03/22 07:15:23;;;;;;;9.27;8.20;;;743.00;1177.60;;;;;;4988871;28;20596;-75
2023/03/22 07:17:52;;;;;;;8.13;7.32;;;691.80;1203.20;;;;;;4989303;28;20038;-79
2023/03/22 07:20:18;;;;;;;8.20;7.43;;;691.80;1177.60;;;;;;4989165;28;20022;-75
2023/03/22 07:22:45;;;;;;;10.68;8.60;;;666.20;1254.40;;;;;;4988899;28;20069;-77
2023/03/22 07:25:11;;;;;;;9.10;8.25;;;640.10;1305.60;;;;;;4988971;28;20121;-76
2023/03/22 07:27:36;;;;;;;11.05;9.95;;;666.10;1254.40;;;;;;4989115;28;20137;-77
2023/03/22 07:30:03;;;;;;;14.45;12.07;;;717.00;1228.80;;;;;;4988994;28;20022;-71
2023/03/22 07:32:30;;;;;;;8.65;7.63;;;743.10;1177.60;;;;;;4992651;28;20544;-76
2023/03/22 07:34:55;;;;;;;11.45;10.23;;;793.80;1152.00;;;;;;4992903;28;20026;-71
2023/03/22 07:37:21;;;;;;;13.80;12.57;;;794.30;1100.80;;;;;;4993109;28;20032;-73
2023/03/22 07:39:47;;;;;;;9.93;8.95;;;794.50;1100.80;;;;;;4992745;28;20026;-74
2023/03/22 07:42:13;;;;;;;10.07;8.55;;;819.90;1075.20;;;;;;4992352;28;20022;-75
2023/03/22 07:44:39;;;;;;;10.55;9.52;;;845.40;1049.60;;;;;;4992454;28;20447;-77
2023/03/22 07:47:04;;;;;;;9.27;8.45;;;870.70;1024.00;;;;;;4992392;28;20018;-76
2023/03/22 07:49:30;;;;;;;11.02;10.02;;;871.10;998.40;;;;;;4992362;28;20089;-78
2023/03/22 07:51:56;;;;;;;9.85;8.90;;;871.30;972.80;;;;;;4992429;28;20471;-78
2023/03/22 07:54:22;;;;;;;9.88;8.88;;;896.40;947.20;;;;;;4992194;28;20517;-70
2023/03/22 07:56:48;;;;;;;8.57;7.85;;;896.40;947.20;;;;;;4992418;28;20054;-77
2023/03/22 07:59:15;;;;;;;13.57;12.32;;;896.20;947.20;;;;;;4991866;28;20031;-78
2023/03/22 08:01:42;;;;;;;11.48;10.30;;;896.80;921.60;;;;;;4992125;28;20034;-77
2023/03/22 08:04:08;;;;;;;15.65;13.68;;;896.90;921.60;;;;;;4992068;28;20030;-77
2023/03/22 08:06:35;;;;;;;12.30;10.13;;;896.90;921.60;;;;;;4992113;28;20022;-79
2023/03/22 08:09:03;;;;;;;11.60;10.55;;;896.90;921.60;;;;;;4991890;28;20485;-78
2023/03/22 08:11:29;;;;;;;9.35;8.43;;;896.20;947.20;;;;;;4992357;28;20038;-80
2023/03/22 08:13:55;;;;;;;14.77;13.43;;;896.60;921.60;;;;;;4991640;28;20101;-78
2023/03/22 08:16:21;;;;;;;9.60;8.05;;;896.60;921.60;;;;;;4992063;28;20069;-73
2023/03/22 08:18:47;;;;;;;9.27;6.93;;;947.20;896.00;;;;;;4992343;28;20366;-77
2023/03/22 08:21:13;;;;;;;11.90;8.57;;;845.50;972.80;;;;;;4991805;28;20079;-70
2023/03/22 08:23:39;;;;;;;10.13;7.07;;;819.80;998.40;;;;;;4991852;28;20037;-77
2023/03/22 08:26:05;;;;;;;9.50;7.70;;;742.50;1126.40;;;;;;4991982;28;20018;-78
2023/03/22 08:28:31;;;;;;;6.85;5.93;;;691.80;1152.00;;;;;;4978725;28;20476;-77
2023/03/22 08:30:56;;;;;;;8.15;5.72;;;640.80;1203.20;;;;;;4991782;28;20034;-76
2023/03/22 08:33:22;;;;;;;7.13;6.05;;;640.70;1228.80;;;;;;4991339;28;20034;-66
2023/03/22 08:35:49;;;;;;;9.48;8.57;;;615.30;1254.40;;;;;;4991888;28;20101;-77
2023/03/22 08:38:15;;;;;;;24.60;20.15;;;691.70;1177.60;;;;;;4973649;28;20105;-77
2023/03/22 08:40:44;;;;;;;14.15;12.50;;;768.20;1100.80;;;;;;4991665;28;20023;-77
2023/03/22 08:43:10;;;;;;;9.95;7.05;;;717.50;1100.80;;;;;;4991533;28;20027;-78
2023/03/22 08:45:36;;;;;;;7.00;5.88;;;692.10;1126.40;;;;;;4991269;28;20077;-78
2023/03/22 08:48:02;;;;;;;9.23;6.10;;;691.40;1152.00;;;;;;4991155;28;20031;-77
2023/03/22 08:50:28;;;;;;;6.00;5.40;;;665.60;1203.20;;;;;;4991733;28;20068;-77
2023/03/22 08:52:55;;;;;;;7.60;6.00;;;615.20;1254.40;;;;;;4991288;28;20113;-77
2023/03/22 08:55:20;;;;;;;9.73;6.93;;;614.40;1305.60;;;;;;4990987;28;20026;-74
2023/03/22 08:57:49;;;;;;;7.35;5.68;;;589.20;1331.20;;;;;;4991121;28;20173;-77
2023/03/22 09:00:16;;;;;;;7.68;6.78;;;589.70;1305.60;;;;;;4990960;28;20472;-76
2023/03/22 09:02:42;;;;;;;8.02;5.82;;;615.00;1254.40;;;;;;4990697;28;20038;-77
2023/03/22 09:05:08;;;;;;;10.70;7.03;;;614.70;1254.40;;;;;;4991478;28;20377;-77
2023/03/22 09:07:34;;;;;;;8.07;7.28;;;665.60;1228.80;;;;;;4990908;28;20026;-77
2023/03/22 09:10:00;;;;;;;5.93;5.32;;;691.20;1177.60;;;;;;4990991;28;20023;-76
2023/03/22 09:12:25;;;;;;;8.15;7.35;;;640.10;1203.20;;;;;;4990602;28;20033;-69
2023/03/22 09:14:51;;;;;;;8.55;5.82;;;640.50;1203.20;;;;;;4975832;28;20051;-74
2023/03/22 09:17:17;;;;;;;9.95;7.47;;;640.60;1203.20;;;;;;4970982;28;20030;-72
2023/03/22 09:19:44;;;;;;;8.50;5.78;;;640.30;1203.20;;;;;;4971232;28;20478;-68
2023/03/22 09:22:10;;;;;;;8.73;4.53;;;640.20;1228.80;;;;;;4971344;28;20023;-76
2023/03/22 09:24:36;;;;;;;5.72;4.97;;;640.00;1228.80;;;;;;4971436;28;20114;-77
2023/03/22 09:27:02;;;;;;;7.45;5.05;;;640.00;1228.80;;;;;;4971192;28;20106;-76
2023/03/22 09:29:27;;;;;;;5.50;4.20;;;615.20;1228.80;;;;;;4971381;28;20030;-76
2023/03/22 09:31:53;;;;;;;8.90;5.45;;;615.00;1203.20;;;;;;4971318;28;20085;-76
2023/03/22 09:34:19;;;;;;;5.45;4.53;;;640.00;1228.80;;;;;;4971151;28;20426;-76
2023/03/22 09:36:46;;;;;;;8.07;5.55;;;614.90;1203.20;;;;;;4971176;28;20543;-75
2023/03/22 09:39:12;;;;;;;6.78;4.95;;;589.60;1280.00;;;;;;4971213;28;20789;-76
2023/03/22 09:41:52;;;;;;;6.07;4.57;;;589.60;1254.40;;;;;;4970937;28;20107;-76
2023/03/22 09:44:32;;;;;;;5.95;4.88;;;588.90;1280.00;;;;;;4970462;28;20069;-59
2023/03/22 09:47:00;;;;;;;5.60;4.88;;;563.70;1305.60;;;;;;4970655;28;20101;-60
2023/03/22 09:49:34;;;;;;;11.32;7.82;;;563.60;1356.80;;;;;;4970717;28;20476;-59
2023/03/22 09:52:01;;;;;;;10.43;5.35;;;588.90;1331.20;;;;;;4970665;28;20113;-59
2023/03/22 09:54:36;;;;;;;7.13;5.53;;;588.90;1305.60;;;;;;4970136;28;20087;-59
2023/03/22 09:57:05;;;;;;;6.18;5.07;;;563.90;1331.20;;;;;;4970714;28;20023;-59
2023/03/22 09:59:38;;;;;;;5.97;4.82;;;588.90;1331.20;;;;;;4970835;28;20023;-58
2023/03/22 10:02:26;;;;;;;6.47;5.38;;;588.90;1331.20;;;;;;4970576;28;20491;-59
2023/03/22 10:05:29;;;;;;;9.68;6.15;;;589.10;1331.20;;;;;;4970962;28;20102;-58
2023/03/22 10:08:29;;;;;;;7.00;5.10;;;589.10;1356.80;;;;;;4970433;28;20018;-59
2023/03/22 10:10:58;;;;;;;21.17;14.38;;;563.60;1356.80;;;;;;4891681;29;20056;-59
2023/03/22 10:13:45;;;;;;;6.72;5.07;;;564.00;1331.20;;;;;;4891914;29;20049;-58
2023/03/22 10:16:14;;;;;;;9.45;5.78;;;563.40;1382.40;;;;;;4921390;29;20044;-58
2023/03/22 10:18:46;;;;;;;6.00;4.43;;;563.20;1356.80;;;;;;4923330;29;20099;-58
2023/03/22 10:21:14;;;;;;;9.98;7.00;;;538.50;1382.40;;;;;;4919422;29;20031;-59
2023/03/22 10:23:54;;;;;;;8.55;5.05;;;563.20;1408.00;;;;;;4917064;29;20027;-59
2023/03/22 10:26:31;;;;;;;9.95;4.97;;;563.70;1408.00;;;;;;4919002;29;20040;-74
2023/03/22 10:29:02;;;;;;;6.32;4.97;;;563.70;1356.80;;;;;;4910211;29;20056;-74
2023/03/22 10:31:29;;;;;;;5.60;4.47;;;563.60;1382.40;;;;;;4910300;29;20024;-66
2023/03/22 10:34:18;;;;;;;7.32;5.32;;;563.90;1382.40;;;;;;4917164;29;20039;-63
2023/03/22 10:36:46;;;;;;;9.23;6.93;;;564.10;1356.80;;;;;;4929300;29;20059;-74
2023/03/22 10:39:15;;;;;;;6.35;4.70;;;588.90;1382.40;;;;;;4929339;29;20107;-64
2023/03/22 10:41:41;;;;;;;7.43;4.22;;;588.80;1305.60;;;;;;4912505;29;20036;-72
2023/03/22 10:44:12;;;;;;;6.63;3.40;;;563.80;1331.20;;;;;;4910391;29;20457;-74
2023/03/22 10:46:40;;;;;;;5.55;3.92;;;563.60;1356.80;;;;;;4915125;29;20733;-59
2023/03/22 10:49:09;;;;;;;7.45;4.75;;;538.30;1331.20;;;;;;4961220;28;20063;-61
2023/03/22 10:51:48;;;;;;;5.50;3.90;;;538.50;1331.20;;;;;;4970084;28;20552;-58
2023/03/22 10:54:17;;;;;;;6.32;3.92;;;537.80;1356.80;;;;;;4969241;28;20593;-59
2023/03/22 10:56:43;;;;;;;11.95;7.70;;;512.90;1331.20;;;;;;4950573;28;20381;-59
2023/03/22 10:59:48;;;;;;;8.48;6.15;;;538.00;1356.80;;;;;;4951061;28;20102;-61
2023/03/22 11:02:29;;;;;;;5.97;3.85;;;538.00;1382.40;;;;;;4950830;28;20035;-72
2023/03/22 11:05:01;;;;;;;12.73;8.88;;;538.10;1356.80;;;;;;4952523;28;20051;-74
2023/03/22 11:07:32;;;;;;;13.70;9.27;;;538.00;1382.40;;;;;;4968477;28;20673;-74
2023/03/22 11:10:07;;;;;;;18.80;13.45;;;538.20;1382.40;;;;;;4973954;28;20037;-75
2023/03/22 11:12:45;;;;;;;5.05;3.97;;;538.30;1356.80;;;;;;4972820;28;20061;-72
2023/03/22 11:15:28;;;;;;;8.45;5.38;;;537.90;1408.00;;;;;;4991637;28;20161;-60
2023/03/22 11:18:05;;;;;;;9.95;7.05;;;538.40;1408.00;;;;;;4980691;28;20010;-57
2023/03/22 11:20:33;;;;;;;7.93;6.22;;;563.50;1408.00;;;;;;4993145;28;20034;-59
2023/03/22 11:23:05;;;;;;;13.27;9.13;;;563.80;1382.40;;;;;;4992892;28;20381;-58
2023/03/22 11:25:36;;;;;;;54.58;27.30;;;564.00;1331.20;;;;;;4993077;28;20069;-59
2023/03/22 11:28:15;;;;;;;8.05;6.68;;;564.00;1331.20;;;;;;4992827;28;20022;-60
2023/03/22 11:30:57;;;;;;;10.40;9.30;;;563.70;1331.20;;;;;;4993268;28;20030;-69
2023/03/22 11:33:24;;;;;;;5.15;3.72;;;563.90;1305.60;;;;;;4992761;28;20481;-74
2023/03/22 11:35:59;;;;;;;5.57;3.30;;;538.50;1280.00;;;;;;4992918;28;20543;-75
2023/03/22 11:38:35;;;;;;;8.43;6.75;;;563.60;1305.60;;;;;;4993056;28;20057;-74
2023/03/22 11:41:22;;;;;;;6.30;3.65;;;563.70;1331.20;;;;;;4992578;28;20033;-73
2023/03/22 11:43:53;;;;;;;6.22;4.43;;;563.60;1356.80;;;;;;4992183;28;20131;-74
2023/03/22 11:46:19;;;;;;;23.60;18.75;;;537.70;1356.80;;;;;;4992951;28;20477;-59
2023/03/22 11:48:47;;;;;;;8.48;6.15;;;538.10;1382.40;;;;;;4992717;28;20030;-59
2023/03/22 11:51:16;;;;;;;9.85;7.65;;;537.80;1408.00;;;;;;4992929;28;20018;-60
2023/03/22 11:53:45;;;;;;;6.35;5.25;;;538.00;1408.00;;;;;;4992163;28;20515;-59
2023/03/22 11:56:15;;;;;;;20.52;17.38;;;537.80;1408.00;;;;;;4992910;28;20042;-59
2023/03/22 11:58:53;;;;;;;33.55;25.85;;;537.80;1382.40;;;;;;4992311;28;20034;-59
2023/03/22 12:01:30;;;;;;;8.95;4.60;;;537.80;1408.00;;;;;;4992223;28;20030;-75
2023/03/22 12:03:58;;;;;;;6.75;5.40;;;538.00;1382.40;;;;;;4992196;28;20109;-73
2023/03/22 12:06:27;;;;;;;15.63;11.05;;;512.90;1331.20;;;;;;4992248;28;20027;-71
2023/03/22 12:09:39;;;;;;;8.32;5.38;;;537.70;1356.80;;;;;;4991999;28;20026;-75
2023/03/22 12:12:18;;;;;;;6.63;4.93;;;537.90;1408.00;;;;;;4984455;28;20033;-75
2023/03/22 12:15:01;;;;;;;9.15;5.45;;;537.90;1408.00;;;;;;4979436;28;20125;-68
2023/03/22 12:17:39;;;;;;;11.05;6.47;;;538.00;1356.80;;;;;;4991182;28;20023;-75
2023/03/22 12:20:32;;;;;;;7.03;5.43;;;538.10;1382.40;;;;;;4991686;28;20041;-75
2023/03/22 12:22:59;;;;;;;16.50;11.18;;;538.30;1382.40;;;;;;4962874;28;20029;-71
2023/03/22 12:25:34;;;;;;;17.67;13.13;;;538.40;1356.80;;;;;;4991928;28;20023;-75
2023/03/22 12:28:08;;;;;;;16.60;9.23;;;538.20;1356.80;;;;;;4991916;28;20442;-71